Aérodrome :
LOGIN :

S'inscrire | Disclaimer

   EN    FR    IT 

 










Légende :    VFR   VFR Marginal   IFR   IFR Intensif   IFR Très Intensif
Visi : 
Plafond : 
>= 8 km
>= 3000ft
5 à 8 km
1000 à 3000 ft
1500m à 5 km
500 à 1000 ft
800 à 1500m
200 à 500 ft
< 800m
< 200 ft
Symboles :   Orages  Brouillard  Fortes neiges  Fortes précipitations  Vent > 20 kt
SIGMETs :   Divers  Orages  Givrage  Turbulence  Onde Orograph.  Cendres Volcan.







- Altitude de l'aérodrome : 1000 ft
- Code IATA : PEV


LHPP - Pécs Pogany

DERNIER METAR :
  • 131503Z 05005KT 1400 BR FEW005 BKN016 M01/M01 Q1021

METARs EXPIRÉS :
  • 131445Z 09003KT 1700 BR BKN016 M00/M01 Q1020
  • 131439Z 09002KT 1500 BR BKN013 M01/M01 Q1021
  • 131417Z 09002KT 0600 FZFG FEW013 SCT200 M01/M01 Q1021
  • 131345Z 10005KT 0150 FZFG VV001 M00/M01 Q1020
  • 131341Z 10005KT 0150 FZFG VV001 M00/M01 Q1021
  • 131321Z 11006KT 0800 FG FEW013 SCT200 00/M01 Q1021
  • 131317Z 13006KT 3000 BR FEW013 SCT200 00/M01 Q1021
  • 131245Z 13008KT 9999 FEW013 03/M01 Q1019
  • 131215Z 13007KT 9999 SCT013 02/M01 Q1020

TAF AMD TAF LHPP
Valide du 13 à 15h jusqu'au 14 à 00h UTC


131500Z 1315/1324 09005KT 2000 BR BKN017
TEMPO 1315/1320 0600 FZFG SCT001 BKN005
Pas de NOTAMs connus pour ce terrain.



MET'MAP, la Météo Aéronautique d'un coup d'oeil ! - Copyright ORBIFLY Décembre 2007 - Disclaimer

ORBIFLY MET'MAP TEAM :

Programmation & Développement : Alexandra Zaïnal
Conception & Développement : Baudouin d'Aumeries
Co-Programmation & Développement : Marc-Olivier Méhu
Soutien technique & logistique : Manuel Goepfert

Contact : metmap@orbifly.com




SOURCES & CREDITS :

   NOAA